KWDG/WDG METAR and TAF weather

Enter ICAO airport designator
Station Type Date Time Source
KWDG METAR 2021/06/22 23:45 UTC NOAA

KWDG 222345Z 17016G24KT 10SM SKC 29/09 A2989


Station Type Date Time Source
KWDG Decoded METAR 2021/06/22 23:45 UTC NOAA

Enid, Enid Woodring Regional Airport, OK, United States (KWDG) 36-22-45N 097-47-28W
Jun 22, 2021 - 07:45 PM EDT / 2021.06.22 2345 UTC
Wind: from the S (170 degrees) at 18 MPH (16 KT) gusting to 28 MPH (24 KT):0
Visibility: 10 mile(s):0
Sky conditions: clear
Temperature: 84 F (29 C)
Dew Point: 48 F (9 C)
Relative Humidity: 28%
Pressure (altimeter): 29.89 in. Hg (1012 hPa)
ob: KWDG 222345Z 17016G24KT 10SM SKC 29/09 A2989
cycle: 0

Station Type Date Time Source
KWDG TAF UTC NOAA

Error!

Example: see airport list